Glenda Meredith — A8TX2 — position and weather

sailwx.info

Track history (hours):
 
Tides and Currents Weather Stations Pressure Air Temp Water Temp Dewpoint Dewpoint Depression Visibility Wind Speed Wind Dir Waves Ship Positions

Glenda Meredith

Last reported at 2015-Jan-26 02:11 UTC. Time now 2015-Feb-02 01:52 UTC.
Position N 37°03' E 026°45'.

Length 182 m; draft 10.6 m.

Type: Tanker. MMSI: 636014450.

Date/timePositionNaut miles runAvg speedWind from/ knotsBaromVisibWave heightAir tempDewpointWater temp
2015-Jan-26 02:11N 37°03' E 026°45'4512.3
2015-Jan-25 22:31N 37°25' E 025°55'1211.6
2015-Jan-25 21:29N 37°34' E 025°46'1112.4
2015-Jan-25 20:33N 37°44' E 025°39'  
2015-Jan-20 16:18N 37°52' E 024°35'810.7
2015-Jan-20 15:31N 37°44' E 024°31'47511.6
2015-Jan-18 22:31N 36°36' E 014°40'1313.9
2015-Jan-18 21:33N 36°42' E 014°26'1413.8
2015-Jan-18 20:34N 36°48' E 014°10'1414.1
2015-Jan-18 19:34N 36°54' E 013°54'1313.3
2015-Jan-18 18:33N 36°60' E 013°39'7913.2
2015-Jan-18 12:33N 37°38' E 012°12'1413.9
2015-Jan-18 11:33N 37°45' E 011°57'15313.5
2015-Jan-18 00:12N 38°36' E 008°53'913.3
2015-Jan-17 23:33N 38°38' E 008°42'1613.6
2015-Jan-17 22:21N 38°42' E 008°22'2413.2
2015-Jan-17 20:33N 38°59' E 008°01'3213.8
2015-Jan-17 18:13N 39°27' E 007°41'25413.6
2015-Jan-16 23:33N 43°11' E 005°01'1212.0
2015-Jan-16 22:33N 43°23' E 004°58'4 4.2
2015-Jan-16 21:33N 43°25' E 004°53'  
Track history (hours):
 
Tides and Currents Weather Stations Pressure Air Temp Water Temp Dewpoint Dewpoint Depression Visibility Wind Speed Wind Dir Waves Ship Positions

Glenda Meredith

Last reported at 2015-Jan-26 02:11 UTC. Time now 2015-Feb-02 01:52 UTC.
Position N 37°03' E 026°45'.

Length 182 m; draft 10.6 m.

Type: Tanker. MMSI: 636014450.

Date/timePositionNaut miles runAvg speedWind from/ knotsBaromVisibWave heightAir tempDewpointWater temp
2015-Jan-26 02:11N 37°03' E 026°45'4512.3
2015-Jan-25 22:31N 37°25' E 025°55'1211.6
2015-Jan-25 21:29N 37°34' E 025°46'1112.4
2015-Jan-25 20:33N 37°44' E 025°39'  
2015-Jan-20 16:18N 37°52' E 024°35'810.7
2015-Jan-20 15:31N 37°44' E 024°31'47511.6
2015-Jan-18 22:31N 36°36' E 014°40'1313.9
2015-Jan-18 21:33N 36°42' E 014°26'1413.8
2015-Jan-18 20:34N 36°48' E 014°10'1414.1
2015-Jan-18 19:34N 36°54' E 013°54'1313.3
2015-Jan-18 18:33N 36°60' E 013°39'7913.2
2015-Jan-18 12:33N 37°38' E 012°12'1413.9
2015-Jan-18 11:33N 37°45' E 011°57'15313.5
2015-Jan-18 00:12N 38°36' E 008°53'913.3
2015-Jan-17 23:33N 38°38' E 008°42'1613.6
2015-Jan-17 22:21N 38°42' E 008°22'2413.2
2015-Jan-17 20:33N 38°59' E 008°01'3213.8
2015-Jan-17 18:13N 39°27' E 007°41'25413.6
2015-Jan-16 23:33N 43°11' E 005°01'1212.0
2015-Jan-16 22:33N 43°23' E 004°58'4 4.2
2015-Jan-16 21:33N 43°25' E 004°53'  

Dump ship's entire track history